createdAt,value
2023-04-25T00:06:13.610Z,976.2
2023-04-25T00:25:24.944Z,976.1
2023-04-25T00:44:35.928Z,976.2
2023-04-25T01:03:48.954Z,976.1
2023-04-25T01:22:59.690Z,976.1
2023-04-25T01:42:11.108Z,976.3
2023-04-25T02:01:24.431Z,976.4
2023-04-25T02:20:35.715Z,976.4
2023-04-25T02:39:46.938Z,976.4
2023-04-25T02:59:00.727Z,976.5
2023-04-25T03:18:08.436Z,976.4
2023-04-25T03:37:20.827Z,976.4
2023-04-25T03:56:34.851Z,976.5
2023-04-25T04:15:46.408Z,976.5
2023-04-25T04:34:55.531Z,976.6
2023-04-25T04:54:12.303Z,976.7
2023-04-25T05:13:23.445Z,976.9
2023-04-25T05:32:36.034Z,977.1
2023-04-25T05:51:44.113Z,977.3
2023-04-25T06:10:58.217Z,977.5
2023-04-25T06:30:10.900Z,977.8
2023-04-25T06:49:18.604Z,978
2023-04-25T07:08:34.931Z,977.9
2023-04-25T07:27:50.007Z,978.1
2023-04-25T07:47:04.991Z,978.1
2023-04-25T08:06:09.348Z,978.3
2023-04-25T08:25:22.113Z,978.6
2023-04-25T08:44:32.884Z,978.8
2023-04-25T09:03:39.086Z,979.3
2023-04-25T09:22:50.115Z,979.6
2023-04-25T09:42:07.243Z,979.6
2023-04-25T10:01:15.557Z,979.8
2023-04-25T10:20:26.407Z,980
2023-04-25T10:39:39.326Z,980
2023-04-25T10:58:54.533Z,980.2
2023-04-25T11:18:02.949Z,980.3
2023-04-25T11:37:21.907Z,980.2
2023-04-25T11:56:27.955Z,980.4
2023-04-25T12:15:42.224Z,980.4
2023-04-25T12:34:59.498Z,980.4
2023-04-25T12:54:06.712Z,980.5
2023-04-25T13:13:17.780Z,980.9
2023-04-25T13:32:26.079Z,980.8
2023-04-25T13:51:40.729Z,980.9
2023-04-25T14:10:44.298Z,981.3
2023-04-25T14:30:01.034Z,981.1
2023-04-25T14:49:11.363Z,981
2023-04-25T15:08:22.843Z,981.2
2023-04-25T15:27:26.122Z,981.7
2023-04-25T15:46:39.968Z,981.6
2023-04-25T16:05:49.046Z,981.6
2023-04-25T16:25:00.889Z,981.5
2023-04-25T16:44:10.199Z,981.6
2023-04-25T17:03:26.120Z,981.6
2023-04-25T17:22:36.838Z,981.7
2023-04-25T17:41:48.863Z,981.8
2023-04-25T18:00:59.502Z,981.9
2023-04-25T18:20:06.619Z,982.2
2023-04-25T18:39:23.969Z,982.3
2023-04-25T18:58:29.309Z,982.6
2023-04-25T19:17:39.582Z,982.8
2023-04-25T19:36:50.146Z,983
2023-04-25T19:56:00.812Z,983
2023-04-25T20:15:12.520Z,983.2
2023-04-25T20:34:25.514Z,983.2
2023-04-25T20:53:32.760Z,983.5
2023-04-25T21:12:42.984Z,983.4
2023-04-25T21:31:51.637Z,983.5
2023-04-25T21:51:01.585Z,983.6
2023-04-25T22:10:08.538Z,983.8
2023-04-25T22:29:18.810Z,984
2023-04-25T22:48:28.703Z,984.2
2023-04-25T23:07:40.379Z,984.4
2023-04-25T23:26:52.464Z,984.4
2023-04-25T23:46:00.782Z,984.4
